Main page
METAR-TAF:

METAR-TAF

Airports :

Tambacounda Airport

Tambacounda, Senegal

latitude: 13-46N, longitude: 013-41W, elevation: 49 m

Current weather observation

The report was made 1 hour and 11 minutes ago, at 18:00 UTC
Calm wind
Temperature 32°C
Humidity 67%
Pressure 1009 hPa
Visibility 10 km or more
Few clouds at a height of 1500 ft
Scattered clouds at a height of 2000 ft, Towering cumulus.

METAR: GOTT 241800Z 00000KT 9999 FEW015 SCT020TCU 32/25 Q1009

Time: 19:11 (19:11 UTC)


TAF: missing

Weather observations and forecasts of more than 4000 airports (METAR and TAF reports).

The available stations are represented by yellow and red dots on the map.

Hover mouse over dot to see the name of the station.

Then click to see weather observations and forecasts.

To change the map : click on the green buttons with a black cross to zoom in, on the green button with a dash to zoom out, or on the green arrows for adjacent maps.


METAR-TAF: